Logo

Informe meteorológico de datos medios para el día en curso

  • Compartir en Google Plus
  • Compartir en Twitter
  • Compartir en Facebook
Nº de accesos al conjunto de datos: 472

Previsualización

API de datos Código HTML

_id codest paraje municipio dia hora tmin tmax tmed hrmin hrmax hrmed prec radmax radmed vvmed vvmax
1 AL31 Lebor Totana 2023-02-01T00:00:00 01:00 1.3 2.2 1.8 93.4 99.9 99.0 0 0.0 0.0 1.2 2.6
2 AL41 La Calavera Alhama 2023-02-01T00:00:00 01:00 -0.6 2.0 0.8 75.4 79.8 77.3 0 0.0 0.0 0.4 1.8
3 AL52 Los Palomos Librilla 2023-02-01T00:00:00 01:00 0.6 2.4 1.7 88.0 96.7 92.5 0 0.0 0.0 0.4 1.0
4 AL62 Cañada Gallego Mazarrón 2023-02-01T00:00:00 01:00 3.2 6.6 5.0 95.3 99.9 99.2 0 0.0 0.0 0.4 2.9
5 AL91 Leiva Mazarrón 2023-02-01T00:00:00 01:00 1.6 4.6 3.1 80.3 90.5 86.2 0 0.0 0.0 0.9 2.5
6 CA12 La Palma Cartagena 2023-02-01T00:00:00 01:00 4.0 4.9 4.4 84.0 86.2 85.2 0 0.0 0.0 0.0 1.1
7 CA21 Corvera Murcia 2023-02-01T00:00:00 01:00 4.2 5.1 4.6 76.7 81.8 79.9 0 0.0 0.0 1.5 2.2
8 CA42 Balsapintada Fuente Alamo 2023-02-01T00:00:00 01:00 1.2 2.4 2.0 99.9 99.9 99.9 0 0.0 0.0 0.5 1.4
9 CA52 La Aljorra Cartagena 2023-02-01T00:00:00 01:00 4.4 5.8 5.2 85.6 92.2 89.3 0 0.0 0.0 1.1 1.7
10 CA73 Los Belones Cartagena 2023-02-01T00:00:00 01:00 5.9 7.4 6.5 89.6 92.3 91.0 0 0.0 0.0 0.3 1.3
11 CA91 Campillo Abajo Fuente Alamo 2023-02-01T00:00:00 00:00 1.7 3.2 2.2 85.5 88.0 86.6 0 0.0 0.0 0.2 0.9
12 CI22 Estación de Blanca Blanca 2023-02-01T00:00:00 01:00 0.1 4.7 1.5 53.9 66.8 63.3 0 0.0 0.0 0.4 1.3
13 CI32 Estación Ulea Ulea 2023-02-01T00:00:00 01:00 1.1 2.3 1.8 56.6 64.0 60.2 0 0.0 0.0 1.6 3.7
14 CI42 La Carrichosa Cieza 2023-02-01T00:00:00 01:00 -1.2 1.9 0.4 52.3 71.3 63.0 0 0.0 0.0 0.3 2.0
15 CI52 Rotas Calasparra 2023-02-01T00:00:00 01:00 -2.4 -1.0 -1.9 53.7 59.8 57.5 0 0.0 0.0 0.7 2.1
16 CI71 Llano de las olivericas Calasparra 2023-02-01T00:00:00 01:00 -0.5 2.9 1.4 47.8 58.7 51.7 0 0.0 0.0 0.8 2.0
17 CR22 Los Prados Caravaca 2023-02-01T00:00:00 01:00 -3.3 -2.2 -2.8 60.4 65.9 62.7 0 0.2 0.1 0.3 1.4
18 CR42 Venta Ulea Moratalla 2023-02-01T00:00:00 01:00 -1.0 0.3 -0.2 46.8 50.3 48.6 0 0.0 0.0 2.0 3.1
19 CR52 La Torrecica Cehegin 2023-02-01T00:00:00 01:00 -0.1 0.8 0.4 51.4 54.9 53.3 0 0.0 0.0 0.0 0.5
20 JU42 Las Moratillas Yecla 2023-02-01T00:00:00 01:00 -4.5 -2.7 -3.8 71.3 76.9 74.5 0 0.0 0.0 1.6 3.0
21 JU52 Pinillos Yecla 2023-02-01T00:00:00 01:00 -2.6 -1.3 -2.1 63.8 68.9 66.5 0 0.0 0.0 0.8 2.0
22 JU62 Miraflores Jumilla 2023-02-01T00:00:00 01:00 -3.9 -1.3 -2.6 57.1 64.7 60.8 0 0.0 0.0 0.6 2.5
23 JU71 Las Encebras Jumilla 2023-02-01T00:00:00 01:00 -1.6 0.4 -0.7 57.1 67.7 62.7 0 0.0 0.0 0.5 2.2
24 JU81 Roman Jumilla 2023-02-01T00:00:00 01:00 -2.4 -0.1 -1.1 59.3 67.9 63.0 0 0.0 0.0 0.8 1.7
25 LO11 Purias Lorca 2023-02-01T00:00:00 01:00 1.2 3.2 2.2 68.2 86.3 79.8 0 0.0 0.0 1.0 2.1
26 LO21 Pozohiguera Lorca 2023-02-01T00:00:00 01:00 3.2 6.3 4.7 68.5 80.7 73.5 0 0.0 0.0 1.7 4.0
27 LO31 La Pilica Aguilas 2023-02-01T00:00:00 01:00 6.1 8.4 6.6 84.1 92.8 90.5 0 0.0 0.0 0.5 1.4
28 LO41 La Paca Lorca 2023-02-01T00:00:00 01:00 -0.1 1.3 0.6 50.9 54.4 52.5 0 0.0 0.0 1.4 2.9
29 LO51 Tebar Aguilas 2023-02-01T00:00:00 01:00 5.5 7.7 6.6 46.2 59.6 51.4 0 0.0 0.0 1.1 2.5
30 LO61 El Esparragal Puerto Lumbreras 2023-02-01T00:00:00 01:00 -1.1 0.7 -0.1 83.3 86.6 84.8 0 0.0 0.0 0.5 1.7
31 ML21 Mula Mula 2023-02-01T00:00:00 01:00 1.0 1.7 1.3 58.6 62.4 61.1 0 0.0 0.0 1.4 2.9
32 MO22 Campotejar Molina Segura 2023-02-01T00:00:00 01:00 2.3 6.1 4.7 45.0 68.5 54.1 0 0.0 0.0 1.5 4.2
33 MO31 El Llano Molina Segura 2023-02-01T00:00:00 01:00 -0.5 1.1 0.0 88.4 92.3 90.9 0 0.0 0.0 0.0 0.0
34 MO41 La Jaira Abanilla 2023-02-01T00:00:00 01:00 4.1 5.0 4.5 56.3 59.8 57.8 0 0.0 0.0 1.5 3.5
35 MO51 Charco Taray Fortuna 2023-02-01T00:00:00 01:00 3.4 5.1 4.3 63.6 72.5 67.1 0 0.0 0.0 0.6 1.3
36 MO62 Loma del Aire Ojós 2023-02-01T00:00:00 01:00 4.6 6.4 5.4 84.8 94.6 89.4 0 0.0 0.0 0.8 2.1
37 MU21 Los Alamos Beniel 2023-02-01T00:00:00 01:00 -0.9 1.0 -0.1 93.8 96.9 95.2 0 0.0 0.0 0.0 0.5
38 MU31 La Vereda Murcia 2023-02-01T00:00:00 01:00 2.1 3.6 2.9 86.3 91.2 88.6 0 0.0 0.0 0.3 1.0
39 TP42 Torre Blanca Torre Pacheco 2023-02-01T00:00:00 01:00 1.2 3.0 2.2 91.8 95.4 93.5 0 0.0 0.0 0.4 2.0
40 TP52 El Mirador San Javier 2023-02-01T00:00:00 01:00 5.2 6.5 5.9 80.6 83.8 81.7 0 0.0 0.0 0.8 1.6
41 TP73 Los Infiernos Torre Pacheco 2023-02-01T00:00:00 01:00 5.9 6.4 6.1 78.2 80.1 79.2 0 0.0 0.0 2.3 3.3
42 TP82 El Jimenado Torre Pacheco 2023-02-01T00:00:00 01:00 3.8 5.1 4.5 81.6 84.3 83.0 0 0.0 0.0 2.0 2.6
43 TP91 Torre Pacheco Torre Pacheco 2023-02-01T00:00:00 01:00 1.4 3.1 2.1 89.7 94.1 92.2 0 0.0 0.0 0.4 1.4

Propiedades del conjunto de datos

Título
Informe meteorológico de datos medios para el día en curso
Descripción

Información sobre los datos meteorológicos del día en curso. Se incluye la información por cada una de las estaciones meteorológicas de la red SIAM gestionada por el Instituto Murciano de Investigación y Desarrollo Agrario y Alimentario (IMIDA). Los datos recogidos por las estaciones son validados al día siguiente de la toma de datos.

Categoría
Palabra clave / etiqueta
Publicador
Cobertura geográfica
Región de Murcia
Idioma
Español
Fecha de primera publicación
15/05/2018
Fecha de última modificación
01/02/2023
Licencia
Frecuencia de actualización
Horaria (cada hora)
Diccionario de datos
La información se estructura en las siguientes columnas: Código de estación meteorológica, Nombre del paraje donde está ubicada la estación, Municipio donde está ubicada la estación, día de toma de datos, hora de toma de datos, Temperatura mínima (ºC), Temperatura máxima (ºC), Temperatura media (ºC), Humedad Relativa mínima (%), Humedad Relativa máxima (%),Humedad Relativa media (%),Precipitación (mm), radiación máxima (w/m2), radiación media (w/m2), Velocidad del Viento media (m/seg), Velocidad del Viento máxima (m/seg), Evapotranspiración máxima de un día (mm).
comments powered by Disqus